Test XHTML 1.0 Strict Page for WU-History Testing
Histórico de la Estación METEOCORUÑA
Diario Datos del Noviembre 09, 2018 Unidades:  Ambos    Inglés   Metrico
« Prev Dia
Sig Dia »
Diario Semanal Mensual Anual Rango
  Max: Min: Media:
Temp: TemperatureC °F /  -17.8 °C 9.6 °F /  -12.4 °C 12.6 °F /  -10.8 °C
Rocío: DewpointC °F /  -17.8 °C 7.4 °F /  -13.7 °C 10.7 °F /  -11.8 °C
Humedad: Humidity % 82 % 88 %
Vel. viento: WindSpeedKMH mph /  0 km/h - 22.4 mph /  36 km/h
Racha: WindSpeedGustKMH mph /  0 km/h - -
Viento:- - South
Presión: PressurehPa in /  0 hPa 1004.2 in /  34002.2 hPa -
Lluvia: 27.7 in /  703.58 mm    
Historical Graphs
 
 
Busqueda de Noviembre 09, 2018
Hora Temp Rocío Presión Viento Vel. viento Racha Humedad Ratio lluvia (/hora) Radiación
TemperatureC °F /  -17.8 °C DewpointC °F /  -17.8 °C PressurehPa in /  0 hPa Calm     Humidity % HourlyPrecipMM in /  0 mm SolarRadiationWatts/m^2 W/m2
00:02 9.7 °F /  -12.4 °C 8.3 °F /  -13.2 °C 1014.1 in /  34337.4 hPa South 18.5 mph /  29.8 km/h 11.3 mph /  18.2 km/h 91 % 0.0 in /  0 mm 0.00 W/m2
00:06 9.7 °F /  -12.4 °C 8.3 °F /  -13.2 °C 1014.1 in /  34337.4 hPa South 19.3 mph /  31.1 km/h 14.0 mph /  22.5 km/h 91 % 0.0 in /  0 mm 0.00 W/m2
00:12 9.8 °F /  -12.3 °C 8.4 °F /  -13.1 °C 1014.1 in /  34337.4 hPa South 19.3 mph /  31.1 km/h 14.2 mph /  22.9 km/h 91 % 0.0 in /  0 mm 0.00 W/m2
00:18 9.8 °F /  -12.3 °C 8.2 °F /  -13.2 °C 1014.2 in /  34340.8 hPa South 16.7 mph /  26.9 km/h 12.7 mph /  20.4 km/h 90 % 0.0 in /  0 mm 0.00 W/m2
00:24 9.7 °F /  -12.4 °C 8.1 °F /  -13.3 °C 1014.8 in /  34361.1 hPa South 11.3 mph /  18.2 km/h 19.3 mph /  31.1 km/h 90 % 0.0 in /  0 mm 0.00 W/m2
00:29 9.7 °F /  -12.4 °C 8.1 °F /  -13.3 °C 1014.9 in /  34364.5 hPa South 11.3 mph /  18.2 km/h 20.9 mph /  33.6 km/h 90 % 0.0 in /  0 mm 0.00 W/m2
00:34 9.7 °F /  -12.4 °C 8.1 °F /  -13.3 °C 1014.9 in /  34364.5 hPa South 12.9 mph /  20.8 km/h 19.3 mph /  31.1 km/h 90 % 0.0 in /  0 mm 0.00 W/m2
00:39 9.7 °F /  -12.4 °C 8.1 °F /  -13.3 °C 1014.8 in /  34361.1 hPa South 11.3 mph /  18.2 km/h 20.9 mph /  33.6 km/h 90 % 0.0 in /  0 mm 0.00 W/m2
00:44 9.7 °F /  -12.4 °C 8.1 °F /  -13.3 °C 1014.9 in /  34364.5 hPa South 11.3 mph /  18.2 km/h 19.3 mph /  31.1 km/h 90 % 0.0 in /  0 mm 0.00 W/m2
00:49 9.8 °F /  -12.3 °C 8.2 °F /  -13.2 °C 1014.9 in /  34364.5 hPa South 11.3 mph /  18.2 km/h 22.5 mph /  36.2 km/h 90 % 0.0 in /  0 mm 0.00 W/m2
00:54 9.9 °F /  -12.3 °C 8.3 °F /  -13.2 °C 1014.9 in /  34364.5 hPa South 12.9 mph /  20.8 km/h 20.9 mph /  33.6 km/h 90 % 0.0 in /  0 mm 0.00 W/m2
00:59 10.0 °F /  -12.2 °C 8.4 °F /  -13.1 °C 1014.9 in /  34364.5 hPa South 12.9 mph /  20.8 km/h 22.5 mph /  36.2 km/h 90 % 0.0 in /  0 mm 0.00 W/m2
01:04 10.1 °F /  -12.2 °C 8.4 °F /  -13.1 °C 1015.0 in /  34367.9 hPa South 12.9 mph /  20.8 km/h 22.5 mph /  36.2 km/h 89 % 0.0 in /  0 mm 0.00 W/m2
01:09 10.2 °F /  -12.1 °C 8.4 °F /  -13.1 °C 1015.1 in /  34371.3 hPa South 12.9 mph /  20.8 km/h 20.9 mph /  33.6 km/h 89 % 0.0 in /  0 mm 0.00 W/m2
01:14 10.4 °F /  -12 °C 8.5 °F /  -13.1 °C 1015.0 in /  34367.9 hPa South 12.9 mph /  20.8 km/h 22.5 mph /  36.2 km/h 88 % 0.0 in /  0 mm 0.00 W/m2
01:19 10.4 °F /  -12 °C 8.5 °F /  -13.1 °C 1015.0 in /  34367.9 hPa South 12.9 mph /  20.8 km/h 25.7 mph /  41.4 km/h 88 % 0.0 in /  0 mm 0.00 W/m2
01:24 10.5 °F /  -11.9 °C 8.4 °F /  -13.1 °C 1015.0 in /  34367.9 hPa South 14.5 mph /  23.3 km/h 25.7 mph /  41.4 km/h 87 % 0.0 in /  0 mm 0.00 W/m2
01:29 10.4 °F /  -12 °C 8.3 °F /  -13.2 °C 1015.1 in /  34371.3 hPa South 12.9 mph /  20.8 km/h 22.5 mph /  36.2 km/h 87 % 0.0 in /  0 mm 0.00 W/m2
01:34 10.5 °F /  -11.9 °C 8.4 °F /  -13.1 °C 1015.1 in /  34371.3 hPa South 12.9 mph /  20.8 km/h 27.4 mph /  44.1 km/h 87 % 0.0 in /  0 mm 0.00 W/m2
01:39 10.4 °F /  -12 °C 8.2 °F /  -13.2 °C 1015.1 in /  34371.3 hPa South 14.5 mph /  23.3 km/h 20.9 mph /  33.6 km/h 86 % 0.0 in /  0 mm 0.00 W/m2
01:44 10.4 °F /  -12 °C 8.2 °F /  -13.2 °C 1015.1 in /  34371.3 hPa South 12.9 mph /  20.8 km/h 22.5 mph /  36.2 km/h 86 % 0.0 in /  0 mm 0.00 W/m2
01:49 10.4 °F /  -12 °C 8.2 °F /  -13.2 °C 1015.1 in /  34371.3 hPa South 11.3 mph /  18.2 km/h 22.5 mph /  36.2 km/h 86 % 0.0 in /  0 mm 0.00 W/m2
01:54 10.4 °F /  -12 °C 8.2 °F /  -13.2 °C 1015.1 in /  34371.3 hPa South 11.3 mph /  18.2 km/h 20.9 mph /  33.6 km/h 86 % 0.0 in /  0 mm 0.00 W/m2
01:59 10.3 °F /  -12.1 °C 8.1 °F /  -13.3 °C 1015.1 in /  34371.3 hPa South 12.9 mph /  20.8 km/h 24.1 mph /  38.8 km/h 86 % 0.0 in /  0 mm 0.00 W/m2
02:04 10.3 °F /  -12.1 °C 8.1 °F /  -13.3 °C 1015.2 in /  34374.7 hPa South 12.9 mph /  20.8 km/h 22.5 mph /  36.2 km/h 86 % 0.0 in /  0 mm 0.00 W/m2
02:09 10.3 °F /  -12.1 °C 8.1 °F /  -13.3 °C 1015.1 in /  34371.3 hPa South 12.9 mph /  20.8 km/h 22.5 mph /  36.2 km/h 86 % 0.0 in /  0 mm 0.00 W/m2
02:14 10.3 °F /  -12.1 °C 8.1 °F /  -13.3 °C 1015.1 in /  34371.3 hPa South 14.5 mph /  23.3 km/h 24.1 mph /  38.8 km/h 86 % 0.0 in /  0 mm 0.00 W/m2
02:19 10.4 °F /  -12 °C 8.2 °F /  -13.2 °C 1015.2 in /  34374.7 hPa South 14.5 mph /  23.3 km/h 27.4 mph /  44.1 km/h 86 % 0.0 in /  0 mm 0.00 W/m2
02:24 10.3 °F /  -12.1 °C 7.9 °F /  -13.4 °C 1015.1 in /  34371.3 hPa South 14.5 mph /  23.3 km/h 24.1 mph /  38.8 km/h 85 % 0.0 in /  0 mm 0.00 W/m2
02:29 10.3 °F /  -12.1 °C 7.9 °F /  -13.4 °C 1015.2 in /  34374.7 hPa South 12.9 mph /  20.8 km/h 19.3 mph /  31.1 km/h 85 % 0.0 in /  0 mm 0.00 W/m2
02:34 10.2 °F /  -12.1 °C 7.8 °F /  -13.4 °C 1015.2 in /  34374.7 hPa SSE 9.7 mph /  15.6 km/h 19.3 mph /  31.1 km/h 85 % 0.0 in /  0 mm 0.00 W/m2
02:39 10.1 °F /  -12.2 °C 7.9 °F /  -13.4 °C 1015.2 in /  34374.7 hPa South 9.7 mph /  15.6 km/h 17.7 mph /  28.5 km/h 86 % 0.0 in /  0 mm 0.00 W/m2
02:44 10.1 °F /  -12.2 °C 7.9 °F /  -13.4 °C 1015.2 in /  34374.7 hPa South 11.3 mph /  18.2 km/h 19.3 mph /  31.1 km/h 86 % 0.0 in /  0 mm 0.00 W/m2
02:49 10.1 °F /  -12.2 °C 7.9 °F /  -13.4 °C 1015.3 in /  34378.1 hPa South 11.3 mph /  18.2 km/h 19.3 mph /  31.1 km/h 86 % 0.0 in /  0 mm 0.00 W/m2
02:54 10.2 °F /  -12.1 °C 7.8 °F /  -13.4 °C 1015.3 in /  34378.1 hPa South 11.3 mph /  18.2 km/h 19.3 mph /  31.1 km/h 85 % 0.0 in /  0 mm 0.00 W/m2
02:59 10.1 °F /  -12.2 °C 7.7 °F /  -13.5 °C 1015.3 in /  34378.1 hPa South 11.3 mph /  18.2 km/h 20.9 mph /  33.6 km/h 85 % 0.0 in /  0 mm 0.00 W/m2
03:04 10.3 °F /  -12.1 °C 7.9 °F /  -13.4 °C 1015.3 in /  34378.1 hPa South 11.3 mph /  18.2 km/h 25.7 mph /  41.4 km/h 85 % 0.0 in /  0 mm 0.00 W/m2
03:09 10.4 °F /  -12 °C 8.0 °F /  -13.3 °C 1015.3 in /  34378.1 hPa South 12.9 mph /  20.8 km/h 20.9 mph /  33.6 km/h 85 % 0.0 in /  0 mm 0.00 W/m2
03:14 10.3 °F /  -12.1 °C 7.9 °F /  -13.4 °C 1015.4 in /  34381.4 hPa South 11.3 mph /  18.2 km/h 20.9 mph /  33.6 km/h 85 % 0.0 in /  0 mm 0.00 W/m2
03:19 10.3 °F /  -12.1 °C 7.9 °F /  -13.4 °C 1015.4 in /  34381.4 hPa South 9.7 mph /  15.6 km/h 16.1 mph /  25.9 km/h 85 % 0.0 in /  0 mm 0.00 W/m2
03:24 10.3 °F /  -12.1 °C 7.9 °F /  -13.4 °C 1015.4 in /  34381.4 hPa SSE 9.7 mph /  15.6 km/h 20.9 mph /  33.6 km/h 85 % 0.0 in /  0 mm 0.00 W/m2
03:29 10.3 °F /  -12.1 °C 7.9 °F /  -13.4 °C 1015.3 in /  34378.1 hPa South 11.3 mph /  18.2 km/h 20.9 mph /  33.6 km/h 85 % 0.0 in /  0 mm 0.00 W/m2
03:34 10.3 °F /  -12.1 °C 7.9 °F /  -13.4 °C 1015.2 in /  34374.7 hPa SSE 9.7 mph /  15.6 km/h 16.1 mph /  25.9 km/h 85 % 0.0 in /  0 mm 0.00 W/m2
03:39 10.2 °F /  -12.1 °C 7.8 °F /  -13.4 °C 1015.2 in /  34374.7 hPa South 8.0 mph /  12.9 km/h 14.5 mph /  23.3 km/h 85 % 0.0 in /  0 mm 0.00 W/m2
03:44 10.0 °F /  -12.2 °C 7.6 °F /  -13.6 °C 1015.1 in /  34371.3 hPa SSE 6.4 mph /  10.3 km/h 16.1 mph /  25.9 km/h 85 % 0.0 in /  0 mm 0.00 W/m2
03:49 9.8 °F /  -12.3 °C 7.4 °F /  -13.7 °C 1015.2 in /  34374.7 hPa SSE 8.0 mph /  12.9 km/h 24.1 mph /  38.8 km/h 85 % 0.0 in /  0 mm 0.00 W/m2
03:54 9.8 °F /  -12.3 °C 7.6 °F /  -13.6 °C 1015.2 in /  34374.7 hPa South 9.7 mph /  15.6 km/h 29.0 mph /  46.7 km/h 86 % 0.0 in /  0 mm 0.00 W/m2
03:59 9.8 °F /  -12.3 °C 7.6 °F /  -13.6 °C 1015.3 in /  34378.1 hPa SSE 12.9 mph /  20.8 km/h 30.6 mph /  49.2 km/h 86 % 0.0 in /  0 mm 0.00 W/m2
04:04 9.8 °F /  -12.3 °C 7.6 °F /  -13.6 °C 1015.3 in /  34378.1 hPa South 16.1 mph /  25.9 km/h 32.2 mph /  51.8 km/h 86 % 0.0 in /  0 mm 0.00 W/m2
04:09 9.8 °F /  -12.3 °C 7.6 °F /  -13.6 °C 1015.2 in /  34374.7 hPa SSE 14.5 mph /  23.3 km/h 29.0 mph /  46.7 km/h 86 % 0.0 in /  0 mm 0.00 W/m2
04:14 9.7 °F /  -12.4 °C 7.4 °F /  -13.7 °C 1015.2 in /  34374.7 hPa SSE 11.3 mph /  18.2 km/h 24.1 mph /  38.8 km/h 86 % 0.0 in /  0 mm 0.00 W/m2
04:19 9.7 °F /  -12.4 °C 7.4 °F /  -13.7 °C 1015.2 in /  34374.7 hPa SSE 11.3 mph /  18.2 km/h 22.5 mph /  36.2 km/h 86 % 0.0 in /  0 mm 0.00 W/m2
04:24 9.6 °F /  -12.4 °C 7.4 °F /  -13.7 °C 1015.0 in /  34367.9 hPa SSE 11.3 mph /  18.2 km/h 24.1 mph /  38.8 km/h 86 % 0.0 in /  0 mm 0.00 W/m2
04:29 9.6 °F /  -12.4 °C 7.6 °F /  -13.6 °C 1015.2 in /  34374.7 hPa SSE 9.7 mph /  15.6 km/h 20.9 mph /  33.6 km/h 87 % 0.0 in /  0 mm 0.00 W/m2
04:34 9.7 °F /  -12.4 °C 7.7 °F /  -13.5 °C 1015.1 in /  34371.3 hPa SSE 11.3 mph /  18.2 km/h 33.8 mph /  54.4 km/h 87 % 0.0 in /  0 mm 0.00 W/m2
04:39 9.8 °F /  -12.3 °C 7.7 °F /  -13.5 °C 1015.0 in /  34367.9 hPa South 14.5 mph /  23.3 km/h 29.0 mph /  46.7 km/h 87 % 0.0 in /  0 mm 0.00 W/m2
04:44 9.8 °F /  -12.3 °C 7.6 °F /  -13.6 °C 1015.0 in /  34367.9 hPa SSE 12.9 mph /  20.8 km/h 24.1 mph /  38.8 km/h 86 % 0.0 in /  0 mm 0.00 W/m2
04:49 9.8 °F /  -12.3 °C 7.6 °F /  -13.6 °C 1015.0 in /  34367.9 hPa SSE 12.9 mph /  20.8 km/h 20.9 mph /  33.6 km/h 86 % 0.0 in /  0 mm 0.00 W/m2
04:54 9.8 °F /  -12.3 °C 7.6 °F /  -13.6 °C 1015.0 in /  34367.9 hPa SSE 12.9 mph /  20.8 km/h 33.8 mph /  54.4 km/h 86 % 0.0 in /  0 mm 0.00 W/m2
04:59 9.8 °F /  -12.3 °C 7.7 °F /  -13.5 °C 1015.2 in /  34374.7 hPa SSE 14.5 mph /  23.3 km/h 24.1 mph /  38.8 km/h 87 % 0.0 in /  0 mm 0.00 W/m2
05:04 9.8 °F /  -12.3 °C 7.7 °F /  -13.5 °C 1015.3 in /  34378.1 hPa SSE 14.5 mph /  23.3 km/h 25.7 mph /  41.4 km/h 87 % 0.0 in /  0 mm 0.00 W/m2
05:09 9.9 °F /  -12.3 °C 7.8 °F /  -13.4 °C 1015.2 in /  34374.7 hPa SSE 12.9 mph /  20.8 km/h 30.6 mph /  49.2 km/h 87 % 0.0 in /  0 mm 0.00 W/m2
05:14 9.9 °F /  -12.3 °C 7.8 °F /  -13.4 °C 1015.2 in /  34374.7 hPa SSE 14.5 mph /  23.3 km/h 30.6 mph /  49.2 km/h 87 % 0.0 in /  0 mm 0.00 W/m2
05:19 9.9 °F /  -12.3 °C 7.8 °F /  -13.4 °C 1015.2 in /  34374.7 hPa SSE 14.5 mph /  23.3 km/h 33.8 mph /  54.4 km/h 87 % 0.0 in /  0 mm 0.00 W/m2
05:24 9.9 °F /  -12.3 °C 7.8 °F /  -13.4 °C 1015.3 in /  34378.1 hPa SSE 14.5 mph /  23.3 km/h 32.2 mph /  51.8 km/h 87 % 0.0 in /  0 mm 0.00 W/m2
05:29 9.9 °F /  -12.3 °C 7.8 °F /  -13.4 °C 1015.4 in /  34381.4 hPa SSE 12.9 mph /  20.8 km/h 29.0 mph /  46.7 km/h 87 % 0.0 in /  0 mm 0.00 W/m2
05:34 9.9 °F /  -12.3 °C 7.8 °F /  -13.4 °C 1015.2 in /  34374.7 hPa SSE 12.9 mph /  20.8 km/h 24.1 mph /  38.8 km/h 87 % 0.0 in /  0 mm 0.00 W/m2
05:39 9.9 °F /  -12.3 °C 7.8 °F /  -13.4 °C 1015.2 in /  34374.7 hPa SSE 12.9 mph /  20.8 km/h 29.0 mph /  46.7 km/h 87 % 0.0 in /  0 mm 0.00 W/m2
05:44 10.1 °F /  -12.2 °C 8.1 °F /  -13.3 °C 1015.3 in /  34378.1 hPa SSE 14.5 mph /  23.3 km/h 29.0 mph /  46.7 km/h 87 % 0.0 in /  0 mm 0.00 W/m2
05:49 10.1 °F /  -12.2 °C 8.1 °F /  -13.3 °C 1015.2 in /  34374.7 hPa SE 16.1 mph /  25.9 km/h 30.6 mph /  49.2 km/h 87 % 0.0 in /  0 mm 0.00 W/m2
05:54 10.1 °F /  -12.2 °C 8.1 °F /  -13.3 °C 1015.3 in /  34378.1 hPa SSE 17.7 mph /  28.5 km/h 38.6 mph /  62.1 km/h 87 % 0.0 in /  0 mm 0.00 W/m2
05:59 10.0 °F /  -12.2 °C 7.9 °F /  -13.4 °C 1015.1 in /  34371.3 hPa SE 17.7 mph /  28.5 km/h 35.4 mph /  57 km/h 87 % 0.0 in /  0 mm 0.00 W/m2
06:04 10.0 °F /  -12.2 °C 7.9 °F /  -13.4 °C 1015.3 in /  34378.1 hPa SSE 17.7 mph /  28.5 km/h 32.2 mph /  51.8 km/h 87 % 0.0 in /  0 mm 0.00 W/m2
06:09 10.0 °F /  -12.2 °C 7.9 °F /  -13.4 °C 1015.3 in /  34378.1 hPa SSE 17.7 mph /  28.5 km/h 33.8 mph /  54.4 km/h 87 % 0.0 in /  0 mm 0.00 W/m2
06:14 10.1 °F /  -12.2 °C 8.1 °F /  -13.3 °C 1015.0 in /  34367.9 hPa SE 19.3 mph /  31.1 km/h 33.8 mph /  54.4 km/h 87 % 0.0 in /  0 mm 0.00 W/m2
06:19 10.1 °F /  -12.2 °C 8.1 °F /  -13.3 °C 1015.1 in /  34371.3 hPa SSE 17.7 mph /  28.5 km/h 27.4 mph /  44.1 km/h 87 % 0.0 in /  0 mm 0.00 W/m2
06:24 10.1 °F /  -12.2 °C 8.1 °F /  -13.3 °C 1015.0 in /  34367.9 hPa SSE 19.3 mph /  31.1 km/h 35.4 mph /  57 km/h 87 % 0.0 in /  0 mm 0.00 W/m2
06:29 10.2 °F /  -12.1 °C 8.1 °F /  -13.3 °C 1015.0 in /  34367.9 hPa SSE 19.3 mph /  31.1 km/h 35.4 mph /  57 km/h 87 % 0.0 in /  0 mm 0.00 W/m2
06:34 10.3 °F /  -12.1 °C 8.2 °F /  -13.2 °C 1014.9 in /  34364.5 hPa SE 19.3 mph /  31.1 km/h 41.8 mph /  67.3 km/h 87 % 0.0 in /  0 mm 0.00 W/m2
06:39 10.3 °F /  -12.1 °C 8.2 °F /  -13.2 °C 1014.9 in /  34364.5 hPa SSE 19.3 mph /  31.1 km/h 38.6 mph /  62.1 km/h 87 % 0.0 in /  0 mm 0.00 W/m2
06:44 10.3 °F /  -12.1 °C 8.1 °F /  -13.3 °C 1014.8 in /  34361.1 hPa SSE 22.5 mph /  36.2 km/h 43.4 mph /  69.8 km/h 86 % 0.0 in /  0 mm 0.00 W/m2
06:49 10.3 °F /  -12.1 °C 8.1 °F /  -13.3 °C 1014.4 in /  34347.6 hPa SSE 24.1 mph /  38.8 km/h 30.6 mph /  49.2 km/h 86 % 0.0 in /  0 mm 0.00 W/m2
06:54 10.4 °F /  -12 °C 8.2 °F /  -13.2 °C 1014.2 in /  34340.8 hPa SSE 20.9 mph /  33.6 km/h 35.4 mph /  57 km/h 86 % 0.0 in /  0 mm 0.00 W/m2
06:59 10.4 °F /  -12 °C 8.2 °F /  -13.2 °C 1014.4 in /  34347.6 hPa SSE 17.7 mph /  28.5 km/h 38.6 mph /  62.1 km/h 86 % 0.0 in /  0 mm 0.00 W/m2
07:04 10.6 °F /  -11.9 °C 8.3 °F /  -13.2 °C 1014.4 in /  34347.6 hPa SSE 17.7 mph /  28.5 km/h 48.3 mph /  77.7 km/h 86 % 0.0 in /  0 mm 0.00 W/m2
07:09 10.6 °F /  -11.9 °C 8.3 °F /  -13.2 °C 1014.0 in /  34334 hPa SSE 24.1 mph /  38.8 km/h 45.1 mph /  72.6 km/h 86 % 0.0 in /  0 mm 0.00 W/m2
07:14 10.7 °F /  -11.8 °C 8.4 °F /  -13.1 °C 1014.2 in /  34340.8 hPa SSE 22.5 mph /  36.2 km/h 35.4 mph /  57 km/h 86 % 0.0 in /  0 mm 0.00 W/m2
07:19 10.7 °F /  -11.8 °C 8.4 °F /  -13.1 °C 1013.9 in /  34330.7 hPa SSE 20.9 mph /  33.6 km/h 43.4 mph /  69.8 km/h 86 % 0.0 in /  0 mm 0.00 W/m2
07:24 10.8 °F /  -11.8 °C 8.6 °F /  -13 °C 1013.8 in /  34327.3 hPa SE 19.3 mph /  31.1 km/h 35.4 mph /  57 km/h 86 % 0.0 in /  0 mm 0.00 W/m2
07:29 10.8 °F /  -11.8 °C 8.6 °F /  -13 °C 1013.8 in /  34327.3 hPa SSE 19.3 mph /  31.1 km/h 38.6 mph /  62.1 km/h 86 % 0.0 in /  0 mm 0.00 W/m2
07:34 10.8 °F /  -11.8 °C 8.6 °F /  -13 °C 1013.7 in /  34323.9 hPa SE 17.7 mph /  28.5 km/h 24.1 mph /  38.8 km/h 86 % 0.0 in /  0 mm 0.00 W/m2
07:39 10.8 °F /  -11.8 °C 8.7 °F /  -12.9 °C 1013.8 in /  34327.3 hPa SE 14.5 mph /  23.3 km/h 24.1 mph /  38.8 km/h 87 % 0.0 in /  0 mm 0.00 W/m2
07:44 10.9 °F /  -11.7 °C 8.8 °F /  -12.9 °C 1014.0 in /  34334 hPa SSE 12.9 mph /  20.8 km/h 35.4 mph /  57 km/h 87 % 0.0 in /  0 mm 0.00 W/m2
07:49 11.0 °F /  -11.7 °C 8.9 °F /  -12.8 °C 1013.8 in /  34327.3 hPa SE 14.5 mph /  23.3 km/h 38.6 mph /  62.1 km/h 87 % 0.0 in /  0 mm 0.00 W/m2
07:54 11.1 °F /  -11.6 °C 8.8 °F /  -12.9 °C 1013.9 in /  34330.7 hPa SSE 17.7 mph /  28.5 km/h 45.1 mph /  72.6 km/h 86 % 0.0 in /  0 mm 0.00 W/m2
07:59 11.1 °F /  -11.6 °C 8.8 °F /  -12.9 °C 1013.7 in /  34323.9 hPa SSE 19.3 mph /  31.1 km/h 37.0 mph /  59.5 km/h 86 % 0.0 in /  0 mm 0.00 W/m2
08:04 11.1 °F /  -11.6 °C 8.8 °F /  -12.9 °C 1013.5 in /  34317.1 hPa SE 16.1 mph /  25.9 km/h 35.4 mph /  57 km/h 86 % 0.0 in /  0 mm 0.00 W/m2
08:09 11.2 °F /  -11.6 °C 8.9 °F /  -12.8 °C 1013.5 in /  34317.1 hPa SSE 14.5 mph /  23.3 km/h 35.4 mph /  57 km/h 86 % 0.0 in /  0 mm 0.00 W/m2
08:14 11.2 °F /  -11.6 °C 8.9 °F /  -12.8 °C 1013.5 in /  34317.1 hPa SSE 14.5 mph /  23.3 km/h 38.6 mph /  62.1 km/h 86 % 0.0 in /  0 mm 7.00 W/m2
08:19 11.2 °F /  -11.6 °C 8.9 °F /  -12.8 °C 1013.5 in /  34317.1 hPa SSE 14.5 mph /  23.3 km/h 46.7 mph /  75.2 km/h 86 % 0.0 in /  0 mm 11.00 W/m2
08:24 11.3 °F /  -11.5 °C 9.1 °F /  -12.7 °C 1013.7 in /  34323.9 hPa SE 16.1 mph /  25.9 km/h 29.0 mph /  46.7 km/h 86 % 0.0 in /  0 mm 9.00 W/m2
08:29 11.4 °F /  -11.4 °C 9.2 °F /  -12.7 °C 1013.5 in /  34317.1 hPa SSE 14.5 mph /  23.3 km/h 38.6 mph /  62.1 km/h 86 % 0.0 in /  0 mm 11.00 W/m2
08:34 11.4 °F /  -11.4 °C 8.9 °F /  -12.8 °C 1013.4 in /  34313.7 hPa SE 14.5 mph /  23.3 km/h 29.0 mph /  46.7 km/h 85 % 0.0 in /  0 mm 16.00 W/m2
08:39 11.4 °F /  -11.4 °C 8.9 °F /  -12.8 °C 1013.5 in /  34317.1 hPa SE 14.5 mph /  23.3 km/h 40.2 mph /  64.7 km/h 85 % 0.0 in /  0 mm 25.00 W/m2
08:43 11.5 °F /  -11.4 °C 9.1 °F /  -12.7 °C 1013.3 in /  34310.3 hPa SSE 16.1 mph /  25.9 km/h 35.4 mph /  57 km/h 85 % 0.0 in /  0 mm 26.00 W/m2
08:49 11.6 °F /  -11.3 °C 9.3 °F /  -12.6 °C 1013.4 in /  34313.7 hPa SE 17.7 mph /  28.5 km/h 37.0 mph /  59.5 km/h 86 % 0.0 in /  0 mm 25.00 W/m2
08:54 11.6 °F /  -11.3 °C 9.2 °F /  -12.7 °C 1013.0 in /  34300.2 hPa SE 14.5 mph /  23.3 km/h 29.0 mph /  46.7 km/h 85 % 0.0 in /  0 mm 28.00 W/m2
08:59 11.7 °F /  -11.3 °C 9.3 °F /  -12.6 °C 1013.0 in /  34300.2 hPa SE 12.9 mph /  20.8 km/h 37.0 mph /  59.5 km/h 85 % 0.0 in /  0 mm 35.00 W/m2
09:04 11.7 °F /  -11.3 °C 9.3 °F /  -12.6 °C 1012.8 in /  34293.4 hPa SE 14.5 mph /  23.3 km/h 35.4 mph /  57 km/h 85 % 0.0 in /  0 mm 44.00 W/m2
09:09 11.8 °F /  -11.2 °C 9.3 °F /  -12.6 °C 1012.6 in /  34286.6 hPa SE 17.7 mph /  28.5 km/h 51.5 mph /  82.9 km/h 85 % 0.0 in /  0 mm 47.00 W/m2
09:14 11.9 °F /  -11.2 °C 9.3 °F /  -12.6 °C 1012.8 in /  34293.4 hPa SSE 14.5 mph /  23.3 km/h 45.1 mph /  72.6 km/h 84 % 0.0 in /  0 mm 44.00 W/m2
09:19 12.1 °F /  -11.1 °C 9.5 °F /  -12.5 °C 1013.0 in /  34300.2 hPa SSE 14.5 mph /  23.3 km/h 62.8 mph /  101.1 km/h 84 % 0.0 in /  0 mm 51.00 W/m2
09:24 12.1 °F /  -11.1 °C 9.5 °F /  -12.5 °C 1013.1 in /  34303.6 hPa SSE 20.9 mph /  33.6 km/h 33.8 mph /  54.4 km/h 84 % 0.0 in /  0 mm 58.00 W/m2
09:29 12.1 °F /  -11.1 °C 9.5 °F /  -12.5 °C 1012.9 in /  34296.8 hPa SE 19.3 mph /  31.1 km/h 25.7 mph /  41.4 km/h 84 % 0.0 in /  0 mm 62.00 W/m2
09:34 12.1 °F /  -11.1 °C 9.5 °F /  -12.5 °C 1012.8 in /  34293.4 hPa SSE 19.3 mph /  31.1 km/h 38.6 mph /  62.1 km/h 84 % 0.0 in /  0 mm 67.00 W/m2
09:39 12.2 °F /  -11 °C 9.6 °F /  -12.4 °C 1012.6 in /  34286.6 hPa SSE 19.3 mph /  31.1 km/h 40.2 mph /  64.7 km/h 84 % 0.0 in /  0 mm 56.00 W/m2
09:44 12.2 °F /  -11 °C 9.6 °F /  -12.4 °C 1012.4 in /  34279.9 hPa SSE 17.7 mph /  28.5 km/h 37.0 mph /  59.5 km/h 84 % 0.0 in /  0 mm 46.00 W/m2
09:49 12.2 °F /  -11 °C 9.6 °F /  -12.4 °C 1012.3 in /  34276.5 hPa SSE 17.7 mph /  28.5 km/h 46.7 mph /  75.2 km/h 84 % 0.0 in /  0 mm 51.00 W/m2
09:54 12.3 °F /  -10.9 °C 9.7 °F /  -12.4 °C 1012.2 in /  34273.1 hPa SSE 17.7 mph /  28.5 km/h 40.2 mph /  64.7 km/h 84 % 0.0 in /  0 mm 56.00 W/m2
09:59 12.3 °F /  -10.9 °C 9.7 °F /  -12.4 °C 1012.3 in /  34276.5 hPa SSE 17.7 mph /  28.5 km/h 49.9 mph /  80.3 km/h 84 % 0.0 in /  0 mm 62.00 W/m2
10:04 12.3 °F /  -10.9 °C 9.7 °F /  -12.4 °C 1011.9 in /  34262.9 hPa SSE 20.9 mph /  33.6 km/h 49.9 mph /  80.3 km/h 84 % 0.0 in /  0 mm 58.00 W/m2
10:09 12.4 °F /  -10.9 °C 9.8 °F /  -12.3 °C 1012.3 in /  34276.5 hPa SSE 22.5 mph /  36.2 km/h 62.8 mph /  101.1 km/h 84 % 0.0 in /  0 mm 67.00 W/m2
10:14 12.5 °F /  -10.8 °C 9.9 °F /  -12.3 °C 1012.1 in /  34269.7 hPa SSE 24.1 mph /  38.8 km/h 59.5 mph /  95.8 km/h 84 % 0.0 in /  0 mm 58.00 W/m2
10:19 12.5 °F /  -10.8 °C 9.9 °F /  -12.3 °C 1011.8 in /  34259.5 hPa SSE 25.7 mph /  41.4 km/h 48.3 mph /  77.7 km/h 84 % 0.0 in /  0 mm 72.00 W/m2
10:24 12.7 °F /  -10.7 °C 10.1 °F /  -12.2 °C 1012.0 in /  34266.3 hPa SSE 25.7 mph /  41.4 km/h 53.1 mph /  85.5 km/h 84 % 0.0 in /  0 mm 91.00 W/m2
10:29 12.8 °F /  -10.7 °C 10.0 °F /  -12.2 °C 1011.5 in /  34249.4 hPa SSE 27.4 mph /  44.1 km/h 48.3 mph /  77.7 km/h 83 % 0.0 in /  0 mm 120.00 W/m2
10:34 12.9 °F /  -10.6 °C 10.1 °F /  -12.2 °C 1011.7 in /  34256.2 hPa SSE 24.1 mph /  38.8 km/h 41.8 mph /  67.3 km/h 83 % 0.0 in /  0 mm 90.00 W/m2
10:39 13.0 °F /  -10.6 °C 10.2 °F /  -12.1 °C 1011.1 in /  34235.8 hPa South 24.1 mph /  38.8 km/h 67.6 mph /  108.8 km/h 83 % 0.0 in /  0 mm 123.00 W/m2
10:44 13.1 °F /  -10.5 °C 10.3 °F /  -12.1 °C 1011.6 in /  34252.8 hPa SSE 25.7 mph /  41.4 km/h 56.3 mph /  90.6 km/h 83 % 0.0 in /  0 mm 93.00 W/m2
10:49 13.0 °F /  -10.6 °C 10.2 °F /  -12.1 °C 1011.1 in /  34235.8 hPa SSE 24.1 mph /  38.8 km/h 62.8 mph /  101.1 km/h 83 % 0.0 in /  0 mm 81.00 W/m2
10:54 12.9 °F /  -10.6 °C 10.1 °F /  -12.2 °C 1010.8 in /  34225.7 hPa SSE 25.7 mph /  41.4 km/h 48.3 mph /  77.7 km/h 83 % 0.0 in /  0 mm 83.00 W/m2
10:59 12.9 °F /  -10.6 °C 10.1 °F /  -12.2 °C 1010.8 in /  34225.7 hPa SSE 24.1 mph /  38.8 km/h 49.9 mph /  80.3 km/h 83 % 0.0 in /  0 mm 88.00 W/m2
11:04 13.0 °F /  -10.6 °C 10.2 °F /  -12.1 °C 1011.2 in /  34239.2 hPa SSE 25.7 mph /  41.4 km/h 78.8 mph /  126.8 km/h 83 % 0.0 in /  0 mm 83.00 W/m2
11:09 13.1 °F /  -10.5 °C 10.3 °F /  -12.1 °C 1010.6 in /  34218.9 hPa SSE 29.0 mph /  46.7 km/h 56.3 mph /  90.6 km/h 83 % 0.0 in /  0 mm 90.00 W/m2
11:14 13.1 °F /  -10.5 °C 10.3 °F /  -12.1 °C 1010.4 in /  34212.1 hPa SSE 30.6 mph /  49.2 km/h 64.4 mph /  103.6 km/h 83 % 0.0 in /  0 mm 100.00 W/m2
11:19 13.1 °F /  -10.5 °C 10.3 °F /  -12.1 °C 1010.9 in /  34229.1 hPa SSE 32.2 mph /  51.8 km/h 53.1 mph /  85.5 km/h 83 % 0.0 in /  0 mm 93.00 W/m2
11:24 13.2 °F /  -10.4 °C 10.4 °F /  -12 °C 1010.3 in /  34208.8 hPa SSE 32.2 mph /  51.8 km/h 56.3 mph /  90.6 km/h 83 % 0.0 in /  0 mm 91.00 W/m2
11:29 13.2 °F /  -10.4 °C 10.4 °F /  -12 °C 1010.4 in /  34212.1 hPa SSE 32.2 mph /  51.8 km/h 70.8 mph /  113.9 km/h 83 % 0.0 in /  0 mm 105.00 W/m2
11:34 13.3 °F /  -10.4 °C 10.3 °F /  -12.1 °C 1011.1 in /  34235.8 hPa SSE 37.0 mph /  59.5 km/h 80.4 mph /  129.4 km/h 82 % 0.0 in /  0 mm 135.00 W/m2
11:39 13.3 °F /  -10.4 °C 10.3 °F /  -12.1 °C 1010.4 in /  34212.1 hPa SSE 41.8 mph /  67.3 km/h 66.0 mph /  106.2 km/h 82 % 0.0 in /  0 mm 132.00 W/m2
11:44 13.2 °F /  -10.4 °C 10.4 °F /  -12 °C 1010.2 in /  34205.4 hPa SSE 38.6 mph /  62.1 km/h 72.4 mph /  116.5 km/h 83 % 0.0 in /  0 mm 111.00 W/m2
11:49 13.3 °F /  -10.4 °C 10.5 °F /  -11.9 °C 1010.3 in /  34208.8 hPa SSE 37.0 mph /  59.5 km/h 75.6 mph /  121.7 km/h 83 % 0.0 in /  0 mm 102.00 W/m2
11:54 13.2 °F /  -10.4 °C 10.6 °F /  -11.9 °C 1010.7 in /  34222.3 hPa SSE 35.4 mph /  57 km/h 61.1 mph /  98.3 km/h 84 % 0.0 in /  0 mm 109.00 W/m2
11:59 13.3 °F /  -10.4 °C 10.7 °F /  -11.8 °C 1010.1 in /  34202 hPa SSE 32.2 mph /  51.8 km/h 74.0 mph /  119.1 km/h 84 % 0.0 in /  0 mm 97.00 W/m2
12:04 13.3 °F /  -10.4 °C 10.7 °F /  -11.8 °C 1009.8 in /  34191.8 hPa SSE 33.8 mph /  54.4 km/h 82.1 mph /  132.1 km/h 84 % 0.0 in /  0 mm 88.00 W/m2
12:09 13.3 °F /  -10.4 °C 10.8 °F /  -11.8 °C 1009.9 in /  34195.2 hPa SSE 33.8 mph /  54.4 km/h 66.0 mph /  106.2 km/h 85 % 0.0 in /  0 mm 137.00 W/m2
12:14 13.4 °F /  -10.3 °C 10.8 °F /  -11.8 °C 1010.3 in /  34208.8 hPa SSE 32.2 mph /  51.8 km/h 78.8 mph /  126.8 km/h 84 % 0.0 in /  0 mm 102.00 W/m2
12:19 13.5 °F /  -10.3 °C 10.8 °F /  -11.8 °C 1010.3 in /  34208.8 hPa SSE 35.4 mph /  57 km/h 57.9 mph /  93.2 km/h 84 % 0.0 in /  0 mm 91.00 W/m2
12:24 13.6 °F /  -10.2 °C 10.8 °F /  -11.8 °C 1010.5 in /  34215.5 hPa SSE 33.8 mph /  54.4 km/h 82.1 mph /  132.1 km/h 83 % 0.0 in /  0 mm 86.00 W/m2
12:29 13.7 °F /  -10.2 °C 10.9 °F /  -11.7 °C 1010.5 in /  34215.5 hPa SSE 33.8 mph /  54.4 km/h 70.8 mph /  113.9 km/h 83 % 0.0 in /  0 mm 84.00 W/m2
12:39 13.6 °F /  -10.2 °C 10.8 °F /  -11.8 °C 1010.0 in /  34198.6 hPa SE 38.6 mph /  62.1 km/h 78.8 mph /  126.8 km/h 83 % 0.0 in /  0 mm 102.00 W/m2
12:44 13.4 °F /  -10.3 °C 10.6 °F /  -11.9 °C 1009.8 in /  34191.8 hPa SSE 37.0 mph /  59.5 km/h 70.8 mph /  113.9 km/h 83 % 0.0 in /  0 mm 104.00 W/m2
12:49 13.4 °F /  -10.3 °C 10.8 °F /  -11.8 °C 1010.0 in /  34198.6 hPa SSE 37.0 mph /  59.5 km/h 72.4 mph /  116.5 km/h 84 % 0.0 in /  0 mm 116.00 W/m2
12:54 13.4 °F /  -10.3 °C 10.8 °F /  -11.8 °C 1009.7 in /  34188.4 hPa SSE 35.4 mph /  57 km/h 69.2 mph /  111.4 km/h 84 % 0.0 in /  0 mm 104.00 W/m2
12:59 13.4 °F /  -10.3 °C 10.9 °F /  -11.7 °C 1010.1 in /  34202 hPa SSE 33.8 mph /  54.4 km/h 62.8 mph /  101.1 km/h 85 % 0.0 in /  0 mm 84.00 W/m2
13:04 13.3 °F /  -10.4 °C 10.8 °F /  -11.8 °C 1009.8 in /  34191.8 hPa SSE 32.2 mph /  51.8 km/h 54.7 mph /  88 km/h 85 % 0.0 in /  0 mm 67.00 W/m2
13:09 13.2 °F /  -10.4 °C 10.9 °F /  -11.7 °C 1009.1 in /  34168.1 hPa SSE 30.6 mph /  49.2 km/h 59.5 mph /  95.8 km/h 86 % 0.0 in /  0 mm 130.00 W/m2
13:14 13.2 °F /  -10.4 °C 10.9 °F /  -11.7 °C 1009.3 in /  34174.9 hPa SSE 33.8 mph /  54.4 km/h 70.8 mph /  113.9 km/h 86 % 0.0 in /  0 mm 169.00 W/m2
13:19 13.2 °F /  -10.4 °C 10.9 °F /  -11.7 °C 1009.1 in /  34168.1 hPa SSE 35.4 mph /  57 km/h 74.0 mph /  119.1 km/h 86 % 0.0 in /  0 mm 130.00 W/m2
13:24 13.2 °F /  -10.4 °C 11.1 °F /  -11.6 °C 1009.2 in /  34171.5 hPa SSE 33.8 mph /  54.4 km/h 57.9 mph /  93.2 km/h 87 % 0.0 in /  0 mm 120.00 W/m2
13:29 13.2 °F /  -10.4 °C 11.1 °F /  -11.6 °C 1009.3 in /  34174.9 hPa SSE 29.0 mph /  46.7 km/h 67.6 mph /  108.8 km/h 87 % 0.0 in /  0 mm 113.00 W/m2
13:34 13.1 °F /  -10.5 °C 11.0 °F /  -11.7 °C 1009.3 in /  34174.9 hPa SSE 29.0 mph /  46.7 km/h 53.1 mph /  85.5 km/h 87 % 0.0 in /  0 mm 81.00 W/m2
13:39 13.2 °F /  -10.4 °C 11.3 °F /  -11.5 °C 1009.5 in /  34181.7 hPa SSE 33.8 mph /  54.4 km/h 61.1 mph /  98.3 km/h 88 % 0.0 in /  0 mm 79.00 W/m2
13:44 13.2 °F /  -10.4 °C 11.3 °F /  -11.5 °C 1009.4 in /  34178.3 hPa SSE 33.8 mph /  54.4 km/h 53.1 mph /  85.5 km/h 88 % 0.0 in /  0 mm 84.00 W/m2
13:49 13.2 °F /  -10.4 °C 11.3 °F /  -11.5 °C 1009.2 in /  34171.5 hPa SSE 30.6 mph /  49.2 km/h 57.9 mph /  93.2 km/h 88 % 0.0 in /  0 mm 76.00 W/m2
13:54 13.3 °F /  -10.4 °C 11.3 °F /  -11.5 °C 1009.0 in /  34164.7 hPa SSE 24.1 mph /  38.8 km/h 41.8 mph /  67.3 km/h 88 % 0.0 in /  0 mm 65.00 W/m2
13:59 13.3 °F /  -10.4 °C 11.3 °F /  -11.5 °C 1009.1 in /  34168.1 hPa SSE 24.1 mph /  38.8 km/h 49.9 mph /  80.3 km/h 88 % 0.0 in /  0 mm 69.00 W/m2
14:04 13.4 °F /  -10.3 °C 11.4 °F /  -11.4 °C 1008.9 in /  34161.4 hPa SSE 27.4 mph /  44.1 km/h 70.8 mph /  113.9 km/h 88 % 0.0 in /  0 mm 77.00 W/m2
14:09 13.4 °F /  -10.3 °C 11.4 °F /  -11.4 °C 1008.8 in /  34158 hPa SSE 25.7 mph /  41.4 km/h 51.5 mph /  82.9 km/h 88 % 0.0 in /  0 mm 74.00 W/m2
14:14 13.4 °F /  -10.3 °C 11.6 °F /  -11.3 °C 1008.8 in /  34158 hPa SSE 24.1 mph /  38.8 km/h 51.5 mph /  82.9 km/h 89 % 0.3 in /  7.62 mm 58.00 W/m2
14:19 13.4 °F /  -10.3 °C 11.6 °F /  -11.3 °C 1009.2 in /  34171.5 hPa SSE 25.7 mph /  41.4 km/h 66.0 mph /  106.2 km/h 89 % 0.3 in /  7.62 mm 46.00 W/m2
14:24 13.5 °F /  -10.3 °C 11.7 °F /  -11.3 °C 1008.6 in /  34151.2 hPa SSE 27.4 mph /  44.1 km/h 48.3 mph /  77.7 km/h 89 % 0.5 in /  12.7 mm 76.00 W/m2
14:29 13.6 °F /  -10.2 °C 11.8 °F /  -11.2 °C 1008.5 in /  34147.8 hPa SSE 25.7 mph /  41.4 km/h 37.0 mph /  59.5 km/h 89 % 0.5 in /  12.7 mm 83.00 W/m2
14:34 13.7 °F /  -10.2 °C 11.9 °F /  -11.2 °C 1008.4 in /  34144.4 hPa SE 25.7 mph /  41.4 km/h 53.1 mph /  85.5 km/h 89 % 0.5 in /  12.7 mm 69.00 W/m2
14:39 13.8 °F /  -10.1 °C 12.0 °F /  -11.1 °C 1008.5 in /  34147.8 hPa SE 25.7 mph /  41.4 km/h 54.7 mph /  88 km/h 89 % 0.5 in /  12.7 mm 67.00 W/m2
14:44 13.9 °F /  -10.1 °C 12.1 °F /  -11.1 °C 1008.4 in /  34144.4 hPa SE 25.7 mph /  41.4 km/h 48.3 mph /  77.7 km/h 89 % 0.5 in /  12.7 mm 51.00 W/m2
14:49 13.9 °F /  -10.1 °C 12.3 °F /  -10.9 °C 1008.7 in /  34154.6 hPa SSE 24.1 mph /  38.8 km/h 46.7 mph /  75.2 km/h 90 % 0.5 in /  12.7 mm 58.00 W/m2
14:54 14.2 °F /  -9.9 °C 12.4 °F /  -10.9 °C 1008.0 in /  34130.9 hPa SSE 25.7 mph /  41.4 km/h 51.5 mph /  82.9 km/h 89 % 0.5 in /  12.7 mm 72.00 W/m2
14:59 14.4 °F /  -9.8 °C 12.6 °F /  -10.8 °C 1008.0 in /  34130.9 hPa SSE 29.0 mph /  46.7 km/h 51.5 mph /  82.9 km/h 89 % 0.5 in /  12.7 mm 60.00 W/m2
15:04 14.4 °F /  -9.8 °C 12.6 °F /  -10.8 °C 1008.0 in /  34130.9 hPa SSE 24.1 mph /  38.8 km/h 46.7 mph /  75.2 km/h 89 % 0.5 in /  12.7 mm 58.00 W/m2
15:09 14.6 °F /  -9.7 °C 12.8 °F /  -10.7 °C 1008.1 in /  34134.3 hPa SSE 20.9 mph /  33.6 km/h 56.3 mph /  90.6 km/h 89 % 0.5 in /  12.7 mm 54.00 W/m2
15:14 14.6 °F /  -9.7 °C 12.8 °F /  -10.7 °C 1008.0 in /  34130.9 hPa SSE 22.5 mph /  36.2 km/h 53.1 mph /  85.5 km/h 89 % 0.5 in /  12.7 mm 53.00 W/m2
15:19 14.8 °F /  -9.6 °C 13.0 °F /  -10.6 °C 1007.7 in /  34120.7 hPa SSE 25.7 mph /  41.4 km/h 61.1 mph /  98.3 km/h 89 % 0.5 in /  12.7 mm 56.00 W/m2
15:24 14.8 °F /  -9.6 °C 13.0 °F /  -10.6 °C 1007.8 in /  34124.1 hPa SSE 29.0 mph /  46.7 km/h 43.4 mph /  69.8 km/h 89 % 0.5 in /  12.7 mm 39.00 W/m2
15:29 14.8 °F /  -9.6 °C 13.0 °F /  -10.6 °C 1007.4 in /  34110.6 hPa SSE 27.4 mph /  44.1 km/h 48.3 mph /  77.7 km/h 89 % 0.5 in /  12.7 mm 26.00 W/m2
15:34 14.9 °F /  -9.5 °C 13.1 °F /  -10.5 °C 1007.9 in /  34127.5 hPa SSE 27.4 mph /  44.1 km/h 45.1 mph /  72.6 km/h 89 % 0.5 in /  12.7 mm 26.00 W/m2
15:39 14.9 °F /  -9.5 °C 13.1 °F /  -10.5 °C 1007.5 in /  34114 hPa South 25.7 mph /  41.4 km/h 41.8 mph /  67.3 km/h 89 % 0.5 in /  12.7 mm 25.00 W/m2
15:44 15.0 °F /  -9.4 °C 13.2 °F /  -10.4 °C 1007.5 in /  34114 hPa SSE 25.7 mph /  41.4 km/h 53.1 mph /  85.5 km/h 89 % 0.5 in /  12.7 mm 28.00 W/m2
15:49 14.9 °F /  -9.5 °C 13.1 °F /  -10.5 °C 1007.7 in /  34120.7 hPa SSE 24.1 mph /  38.8 km/h 49.9 mph /  80.3 km/h 89 % 0.5 in /  12.7 mm 33.00 W/m2
15:54 15.0 °F /  -9.4 °C 13.2 °F /  -10.4 °C 1007.7 in /  34120.7 hPa SSE 19.3 mph /  31.1 km/h 37.0 mph /  59.5 km/h 89 % 0.5 in /  12.7 mm 32.00 W/m2
15:59 15.1 °F /  -9.4 °C 13.4 °F /  -10.3 °C 1007.6 in /  34117.3 hPa SSE 20.9 mph /  33.6 km/h 40.2 mph /  64.7 km/h 90 % 0.5 in /  12.7 mm 30.00 W/m2
16:04 15.2 °F /  -9.3 °C 13.4 °F /  -10.3 °C 1007.5 in /  34114 hPa South 20.9 mph /  33.6 km/h 48.3 mph /  77.7 km/h 89 % 0.5 in /  12.7 mm 25.00 W/m2
16:09 15.3 °F /  -9.3 °C 13.5 °F /  -10.3 °C 1007.3 in /  34107.2 hPa South 24.1 mph /  38.8 km/h 46.7 mph /  75.2 km/h 89 % 0.5 in /  12.7 mm 30.00 W/m2
16:14 15.4 °F /  -9.2 °C 13.8 °F /  -10.1 °C 1007.2 in /  34103.8 hPa South 24.1 mph /  38.8 km/h 59.5 mph /  95.8 km/h 90 % 0.5 in /  12.7 mm 32.00 W/m2
16:19 15.4 °F /  -9.2 °C 13.8 °F /  -10.1 °C 1007.0 in /  34097 hPa South 22.5 mph /  36.2 km/h 43.4 mph /  69.8 km/h 90 % 0.8 in /  20.32 mm 28.00 W/m2
16:24 15.4 °F /  -9.2 °C 13.8 °F /  -10.1 °C 1007.0 in /  34097 hPa SSE 19.3 mph /  31.1 km/h 45.1 mph /  72.6 km/h 90 % 1.0 in /  25.4 mm 21.00 W/m2
16:29 15.4 °F /  -9.2 °C 13.9 °F /  -10.1 °C 1006.9 in /  34093.6 hPa SSE 19.3 mph /  31.1 km/h 53.1 mph /  85.5 km/h 91 % 1.0 in /  25.4 mm 25.00 W/m2
16:34 15.6 °F /  -9.1 °C 14.1 °F /  -9.9 °C 1007.0 in /  34097 hPa South 25.7 mph /  41.4 km/h 49.9 mph /  80.3 km/h 91 % 1.3 in /  33.02 mm 23.00 W/m2
16:39 15.6 °F /  -9.1 °C 14.1 °F /  -9.9 °C 1007.1 in /  34100.4 hPa South 25.7 mph /  41.4 km/h 41.8 mph /  67.3 km/h 91 % 1.3 in /  33.02 mm 14.00 W/m2
16:44 15.7 °F /  -9.1 °C 14.1 °F /  -9.9 °C 1006.9 in /  34093.6 hPa South 22.5 mph /  36.2 km/h 46.7 mph /  75.2 km/h 90 % 1.0 in /  25.4 mm 12.00 W/m2
16:49 15.7 °F /  -9.1 °C 14.2 °F /  -9.9 °C 1006.9 in /  34093.6 hPa SSE 22.5 mph /  36.2 km/h 40.2 mph /  64.7 km/h 91 % 1.3 in /  33.02 mm 11.00 W/m2
16:54 15.8 °F /  -9 °C 14.2 °F /  -9.9 °C 1006.8 in /  34090.2 hPa South 24.1 mph /  38.8 km/h 46.7 mph /  75.2 km/h 90 % 1.0 in /  25.4 mm 12.00 W/m2
16:59 15.8 °F /  -9 °C 14.2 °F /  -9.9 °C 1006.7 in /  34086.9 hPa South 29.0 mph /  46.7 km/h 45.1 mph /  72.6 km/h 90 % 1.0 in /  25.4 mm 21.00 W/m2
17:04 15.8 °F /  -9 °C 14.2 °F /  -9.9 °C 1006.7 in /  34086.9 hPa South 25.7 mph /  41.4 km/h 51.5 mph /  82.9 km/h 90 % 1.3 in /  33.02 mm 37.00 W/m2
17:09 15.8 °F /  -9 °C 14.3 °F /  -9.8 °C 1006.4 in /  34076.7 hPa South 24.1 mph /  38.8 km/h 51.5 mph /  82.9 km/h 91 % 1.3 in /  33.02 mm 16.00 W/m2
17:14 15.8 °F /  -9 °C 14.2 °F /  -9.9 °C 1006.5 in /  34080.1 hPa South 27.4 mph /  44.1 km/h 53.1 mph /  85.5 km/h 90 % 1.0 in /  25.4 mm 11.00 W/m2
17:19 16.0 °F /  -8.9 °C 14.3 °F /  -9.8 °C 1006.8 in /  34090.2 hPa South 29.0 mph /  46.7 km/h 56.3 mph /  90.6 km/h 90 % 0.8 in /  20.32 mm 5.00 W/m2
17:24 16.0 °F /  -8.9 °C 14.3 °F /  -9.8 °C 1006.5 in /  34080.1 hPa South 32.2 mph /  51.8 km/h 66.0 mph /  106.2 km/h 90 % 0.5 in /  12.7 mm 7.00 W/m2
17:29 15.9 °F /  -8.9 °C 14.3 °F /  -9.8 °C 1006.4 in /  34076.7 hPa South 33.8 mph /  54.4 km/h 64.4 mph /  103.6 km/h 90 % 0.5 in /  12.7 mm 0.00 W/m2
17:34 15.8 °F /  -9 °C 14.2 °F /  -9.9 °C 1006.5 in /  34080.1 hPa South 32.2 mph /  51.8 km/h 75.6 mph /  121.7 km/h 90 % 0.8 in /  20.32 mm 0.00 W/m2
17:39 15.8 °F /  -9 °C 14.3 °F /  -9.8 °C 1006.4 in /  34076.7 hPa South 32.2 mph /  51.8 km/h 66.0 mph /  106.2 km/h 91 % 0.8 in /  20.32 mm 0.00 W/m2
17:44 15.8 °F /  -9 °C 14.2 °F /  -9.9 °C 1006.2 in /  34069.9 hPa South 35.4 mph /  57 km/h 59.5 mph /  95.8 km/h 90 % 1.3 in /  33.02 mm 0.00 W/m2
17:49 15.8 °F /  -9 °C 14.3 °F /  -9.8 °C 1006.0 in /  34063.2 hPa South 35.4 mph /  57 km/h 56.3 mph /  90.6 km/h 91 % 1.0 in /  25.4 mm 0.00 W/m2
17:54 15.9 °F /  -8.9 °C 14.4 °F /  -9.8 °C 1006.0 in /  34063.2 hPa South 32.2 mph /  51.8 km/h 51.5 mph /  82.9 km/h 91 % 1.0 in /  25.4 mm 0.00 W/m2
17:59 16.0 °F /  -8.9 °C 14.3 °F /  -9.8 °C 1006.1 in /  34066.5 hPa South 33.8 mph /  54.4 km/h 74.0 mph /  119.1 km/h 90 % 1.0 in /  25.4 mm 0.00 W/m2
18:04 15.9 °F /  -8.9 °C 14.3 °F /  -9.8 °C 1006.1 in /  34066.5 hPa South 33.8 mph /  54.4 km/h 56.3 mph /  90.6 km/h 90 % 1.0 in /  25.4 mm 0.00 W/m2
18:09 15.9 °F /  -8.9 °C 14.4 °F /  -9.8 °C 1006.0 in /  34063.2 hPa South 29.0 mph /  46.7 km/h 61.1 mph /  98.3 km/h 91 % 1.0 in /  25.4 mm 0.00 W/m2
18:14 15.8 °F /  -9 °C 14.2 °F /  -9.9 °C 1006.4 in /  34076.7 hPa South 27.4 mph /  44.1 km/h 57.9 mph /  93.2 km/h 90 % 1.0 in /  25.4 mm 0.00 W/m2
18:19 15.8 °F /  -9 °C 14.3 °F /  -9.8 °C 1006.0 in /  34063.2 hPa South 27.4 mph /  44.1 km/h 66.0 mph /  106.2 km/h 91 % 1.0 in /  25.4 mm 0.00 W/m2
18:24 15.9 °F /  -8.9 °C 14.3 °F /  -9.8 °C 1005.8 in /  34056.4 hPa South 29.0 mph /  46.7 km/h 49.9 mph /  80.3 km/h 90 % 1.0 in /  25.4 mm 0.00 W/m2
18:29 16.0 °F /  -8.9 °C 14.3 °F /  -9.8 °C 1005.7 in /  34053 hPa South 30.6 mph /  49.2 km/h 61.1 mph /  98.3 km/h 90 % 1.0 in /  25.4 mm 0.00 W/m2
18:34 16.1 °F /  -8.8 °C 14.4 °F /  -9.8 °C 1006.0 in /  34063.2 hPa South 27.4 mph /  44.1 km/h 59.5 mph /  95.8 km/h 90 % 0.8 in /  20.32 mm 0.00 W/m2
18:39 16.1 °F /  -8.8 °C 14.4 °F /  -9.8 °C 1005.8 in /  34056.4 hPa South 30.6 mph /  49.2 km/h 64.4 mph /  103.6 km/h 90 % 0.8 in /  20.32 mm 0.00 W/m2
18:44 16.1 °F /  -8.8 °C 14.4 °F /  -9.8 °C 1005.5 in /  34046.2 hPa South 32.2 mph /  51.8 km/h 53.1 mph /  85.5 km/h 90 % 0.5 in /  12.7 mm 0.00 W/m2
18:49 16.1 °F /  -8.8 °C 14.4 °F /  -9.8 °C 1005.7 in /  34053 hPa South 30.6 mph /  49.2 km/h 59.5 mph /  95.8 km/h 90 % 0.5 in /  12.7 mm 0.00 W/m2
18:54 16.0 °F /  -8.9 °C 14.3 °F /  -9.8 °C 1005.5 in /  34046.2 hPa South 30.6 mph /  49.2 km/h 61.1 mph /  98.3 km/h 90 % 0.8 in /  20.32 mm 0.00 W/m2
18:59 16.0 °F /  -8.9 °C 14.3 °F /  -9.8 °C 1005.4 in /  34042.8 hPa South 30.6 mph /  49.2 km/h 53.1 mph /  85.5 km/h 90 % 0.8 in /  20.32 mm 0.00 W/m2
19:04 15.9 °F /  -8.9 °C 14.3 °F /  -9.8 °C 1005.6 in /  34049.6 hPa South 32.2 mph /  51.8 km/h 57.9 mph /  93.2 km/h 90 % 0.8 in /  20.32 mm 0.00 W/m2
19:09 15.9 °F /  -8.9 °C 14.4 °F /  -9.8 °C 1005.5 in /  34046.2 hPa South 30.6 mph /  49.2 km/h 57.9 mph /  93.2 km/h 91 % 1.0 in /  25.4 mm 0.00 W/m2
19:14 15.8 °F /  -9 °C 14.3 °F /  -9.8 °C 1005.1 in /  34032.7 hPa South 29.0 mph /  46.7 km/h 45.1 mph /  72.6 km/h 91 % 1.3 in /  33.02 mm 0.00 W/m2
19:19 15.6 °F /  -9.1 °C 14.3 °F /  -9.8 °C 1005.5 in /  34046.2 hPa SSE 27.4 mph /  44.1 km/h 62.8 mph /  101.1 km/h 92 % 1.3 in /  33.02 mm 0.00 W/m2
19:24 15.4 °F /  -9.2 °C 14.1 °F /  -9.9 °C 1005.4 in /  34042.8 hPa South 25.7 mph /  41.4 km/h 61.1 mph /  98.3 km/h 92 % 1.3 in /  33.02 mm 0.00 W/m2
19:29 15.4 °F /  -9.2 °C 14.3 °F /  -9.8 °C 1005.1 in /  34032.7 hPa SSE 25.7 mph /  41.4 km/h 61.1 mph /  98.3 km/h 93 % 1.0 in /  25.4 mm 0.00 W/m2
19:34 15.4 °F /  -9.2 °C 14.3 °F /  -9.8 °C 1005.0 in /  34029.3 hPa South 24.1 mph /  38.8 km/h 62.8 mph /  101.1 km/h 93 % 1.0 in /  25.4 mm 0.00 W/m2
19:39 15.4 °F /  -9.2 °C 14.3 °F /  -9.8 °C 1005.2 in /  34036.1 hPa South 27.4 mph /  44.1 km/h 56.3 mph /  90.6 km/h 93 % 1.3 in /  33.02 mm 0.00 W/m2
19:44 15.3 °F /  -9.3 °C 14.2 °F /  -9.9 °C 1005.1 in /  34032.7 hPa South 27.4 mph /  44.1 km/h 72.4 mph /  116.5 km/h 93 % 1.3 in /  33.02 mm 0.00 W/m2
19:49 15.3 °F /  -9.3 °C 14.3 °F /  -9.8 °C 1005.4 in /  34042.8 hPa South 25.7 mph /  41.4 km/h 72.4 mph /  116.5 km/h 94 % 1.0 in /  25.4 mm 0.00 W/m2
19:54 15.2 °F /  -9.3 °C 14.2 °F /  -9.9 °C 1005.0 in /  34029.3 hPa South 30.6 mph /  49.2 km/h 67.6 mph /  108.8 km/h 94 % 0.8 in /  20.32 mm 0.00 W/m2
19:59 15.3 °F /  -9.3 °C 14.3 °F /  -9.8 °C 1005.6 in /  34049.6 hPa South 35.4 mph /  57 km/h 75.6 mph /  121.7 km/h 94 % 0.8 in /  20.32 mm 0.00 W/m2
20:04 15.2 °F /  -9.3 °C 14.2 °F /  -9.9 °C 1005.3 in /  34039.5 hPa South 33.8 mph /  54.4 km/h 72.4 mph /  116.5 km/h 94 % 0.8 in /  20.32 mm 0.00 W/m2
20:09 15.2 °F /  -9.3 °C 14.2 °F /  -9.9 °C 1005.0 in /  34029.3 hPa South 32.2 mph /  51.8 km/h 66.0 mph /  106.2 km/h 94 % 0.5 in /  12.7 mm 0.00 W/m2
20:14 15.2 °F /  -9.3 °C 14.4 °F /  -9.8 °C 1005.1 in /  34032.7 hPa South 32.2 mph /  51.8 km/h 70.8 mph /  113.9 km/h 95 % 0.5 in /  12.7 mm 0.00 W/m2
20:19 15.3 °F /  -9.3 °C 14.5 °F /  -9.7 °C 1005.0 in /  34029.3 hPa South 30.6 mph /  49.2 km/h 45.1 mph /  72.6 km/h 95 % 0.5 in /  12.7 mm 0.00 W/m2
20:24 15.4 °F /  -9.2 °C 14.6 °F /  -9.7 °C 1004.9 in /  34025.9 hPa South 27.4 mph /  44.1 km/h 56.3 mph /  90.6 km/h 95 % 0.5 in /  12.7 mm 0.00 W/m2
20:29 15.5 °F /  -9.2 °C 14.6 °F /  -9.7 °C 1004.6 in /  34015.8 hPa South 27.4 mph /  44.1 km/h 51.5 mph /  82.9 km/h 94 % 0.5 in /  12.7 mm 0.00 W/m2
20:34 15.6 °F /  -9.1 °C 14.6 °F /  -9.7 °C 1004.6 in /  34015.8 hPa South 29.0 mph /  46.7 km/h 57.9 mph /  93.2 km/h 94 % 0.5 in /  12.7 mm 0.00 W/m2
20:39 15.7 °F /  -9.1 °C 14.7 °F /  -9.6 °C 1004.8 in /  34022.5 hPa South 32.2 mph /  51.8 km/h 62.8 mph /  101.1 km/h 94 % 0.3 in /  7.62 mm 0.00 W/m2
20:44 15.9 °F /  -8.9 °C 14.8 °F /  -9.6 °C 1004.6 in /  34015.8 hPa South 33.8 mph /  54.4 km/h 66.0 mph /  106.2 km/h 93 % 0.3 in /  7.62 mm 0.00 W/m2
20:49 16.0 °F /  -8.9 °C 14.7 °F /  -9.6 °C 1004.6 in /  34015.8 hPa South 33.8 mph /  54.4 km/h 72.4 mph /  116.5 km/h 92 % 0.5 in /  12.7 mm 0.00 W/m2
20:54 15.9 °F /  -8.9 °C 14.6 °F /  -9.7 °C 1004.2 in /  34002.2 hPa South 33.8 mph /  54.4 km/h 69.2 mph /  111.4 km/h 92 % 0.5 in /  12.7 mm 0.00 W/m2
20:59 15.9 °F /  -8.9 °C 14.6 °F /  -9.7 °C 1004.2 in /  34002.2 hPa South 37.0 mph /  59.5 km/h 64.4 mph /  103.6 km/h 92 % 0.5 in /  12.7 mm 0.00 W/m2
21:04 15.8 °F /  -9 °C 14.5 °F /  -9.7 °C 1004.6 in /  34015.8 hPa South 37.0 mph /  59.5 km/h 56.3 mph /  90.6 km/h 92 % 0.5 in /  12.7 mm 0.00 W/m2
21:09 15.9 °F /  -8.9 °C 14.6 °F /  -9.7 °C 1004.2 in /  34002.2 hPa South 33.8 mph /  54.4 km/h 64.4 mph /  103.6 km/h 92 % 0.5 in /  12.7 mm 0.00 W/m2
21:14 15.9 °F /  -8.9 °C 14.6 °F /  -9.7 °C 1004.5 in /  34012.4 hPa South 32.2 mph /  51.8 km/h 72.4 mph /  116.5 km/h 92 % 0.5 in /  12.7 mm 0.00 W/m2
21:19 15.9 °F /  -8.9 °C 14.4 °F /  -9.8 °C 1004.7 in /  34019.1 hPa South 35.4 mph /  57 km/h 57.9 mph /  93.2 km/h 91 % 0.5 in /  12.7 mm 0.00 W/m2
21:24 15.4 °F /  -9.2 °C 13.9 °F /  -10.1 °C 1004.9 in /  34025.9 hPa SW 30.6 mph /  49.2 km/h 33.8 mph /  54.4 km/h 91 % 1.0 in /  25.4 mm 0.00 W/m2
21:29 14.4 °F /  -9.8 °C 12.9 °F /  -10.6 °C 1005.1 in /  34032.7 hPa SW 20.9 mph /  33.6 km/h 27.4 mph /  44.1 km/h 91 % 2.0 in /  50.8 mm 0.00 W/m2
21:34 14.0 °F /  -10 °C 12.7 °F /  -10.7 °C 1005.0 in /  34029.3 hPa SW 14.5 mph /  23.3 km/h 29.0 mph /  46.7 km/h 92 % 4.6 in /  116.84 mm 0.00 W/m2
21:39 13.6 °F /  -10.2 °C 12.5 °F /  -10.8 °C 1005.0 in /  34029.3 hPa WSW 12.9 mph /  20.8 km/h 32.2 mph /  51.8 km/h 93 % 7.6 in /  193.04 mm 0.00 W/m2
21:44 13.5 °F /  -10.3 °C 12.4 °F /  -10.9 °C 1004.9 in /  34025.9 hPa SW 17.7 mph /  28.5 km/h 33.8 mph /  54.4 km/h 93 % 10.9 in /  276.86 mm 0.00 W/m2
21:49 13.5 °F /  -10.3 °C 12.6 °F /  -10.8 °C 1004.9 in /  34025.9 hPa SW 17.7 mph /  28.5 km/h 29.0 mph /  46.7 km/h 94 % 13.7 in /  347.98 mm 0.00 W/m2
21:54 13.4 °F /  -10.3 °C 12.4 °F /  -10.9 °C 1005.0 in /  34029.3 hPa SSW 17.7 mph /  28.5 km/h 35.4 mph /  57 km/h 94 % 14.7 in /  373.38 mm 0.00 W/m2
21:59 13.3 °F /  -10.4 °C 12.3 °F /  -10.9 °C 1005.0 in /  34029.3 hPa SW 16.1 mph /  25.9 km/h 27.4 mph /  44.1 km/h 94 % 16.0 in /  406.4 mm 0.00 W/m2
22:04 13.3 °F /  -10.4 °C 12.5 °F /  -10.8 °C 1005.1 in /  34032.7 hPa SSW 16.1 mph /  25.9 km/h 32.2 mph /  51.8 km/h 95 % 16.8 in /  426.72 mm 0.00 W/m2
22:09 13.2 °F /  -10.4 °C 12.4 °F /  -10.9 °C 1005.3 in /  34039.5 hPa SSW 16.1 mph /  25.9 km/h 46.7 mph /  75.2 km/h 95 % 17.8 in /  452.12 mm 0.00 W/m2
22:14 13.2 °F /  -10.4 °C 12.4 °F /  -10.9 °C 1005.3 in /  34039.5 hPa SW 19.3 mph /  31.1 km/h 35.4 mph /  57 km/h 95 % 18.8 in /  477.52 mm 0.00 W/m2
22:19 13.3 °F /  -10.4 °C 12.5 °F /  -10.8 °C 1005.4 in /  34042.8 hPa SW 17.7 mph /  28.5 km/h 35.4 mph /  57 km/h 95 % 19.3 in /  490.22 mm 0.00 W/m2
22:24 12.8 °F /  -10.7 °C 12.0 °F /  -11.1 °C 1005.3 in /  34039.5 hPa SW 20.9 mph /  33.6 km/h 35.4 mph /  57 km/h 95 % 19.0 in /  482.6 mm 0.00 W/m2
22:29 12.4 °F /  -10.9 °C 11.6 °F /  -11.3 °C 1005.3 in /  34039.5 hPa SSW 22.5 mph /  36.2 km/h 46.7 mph /  75.2 km/h 95 % 17.8 in /  452.12 mm 0.00 W/m2
22:34 12.7 °F /  -10.7 °C 11.9 °F /  -11.2 °C 1005.4 in /  34042.8 hPa SSW 25.7 mph /  41.4 km/h 45.1 mph /  72.6 km/h 95 % 15.2 in /  386.08 mm 0.00 W/m2
22:39 12.6 °F /  -10.8 °C 11.8 °F /  -11.2 °C 1005.4 in /  34042.8 hPa SSW 27.4 mph /  44.1 km/h 48.3 mph /  77.7 km/h 95 % 12.4 in /  314.96 mm 0.00 W/m2
22:44 12.2 °F /  -11 °C 11.3 °F /  -11.5 °C 1005.3 in /  34039.5 hPa SSW 24.1 mph /  38.8 km/h 37.0 mph /  59.5 km/h 94 % 8.9 in /  226.06 mm 0.00 W/m2
22:49 12.2 °F /  -11 °C 11.3 °F /  -11.5 °C 1005.3 in /  34039.5 hPa SSW 24.1 mph /  38.8 km/h 48.3 mph /  77.7 km/h 94 % 6.6 in /  167.64 mm 0.00 W/m2
22:54 12.2 °F /  -11 °C 11.3 °F /  -11.5 °C 1005.3 in /  34039.5 hPa SSW 25.7 mph /  41.4 km/h 51.5 mph /  82.9 km/h 94 % 5.6 in /  142.24 mm 0.00 W/m2
22:59 12.1 °F /  -11.1 °C 11.2 °F /  -11.6 °C 1005.3 in /  34039.5 hPa SSW 30.6 mph /  49.2 km/h 56.3 mph /  90.6 km/h 94 % 5.1 in /  129.54 mm 0.00 W/m2
23:04 12.3 °F /  -10.9 °C 11.4 °F /  -11.4 °C 1005.1 in /  34032.7 hPa SSW 30.6 mph /  49.2 km/h 49.9 mph /  80.3 km/h 94 % 4.3 in /  109.22 mm 0.00 W/m2
23:09 12.3 °F /  -10.9 °C 11.4 °F /  -11.4 °C 1004.9 in /  34025.9 hPa SSW 27.4 mph /  44.1 km/h 32.2 mph /  51.8 km/h 94 % 3.8 in /  96.52 mm 0.00 W/m2
23:14 12.6 °F /  -10.8 °C 11.7 °F /  -11.3 °C 1005.2 in /  34036.1 hPa South 24.1 mph /  38.8 km/h 40.2 mph /  64.7 km/h 94 % 2.5 in /  63.5 mm 0.00 W/m2
23:19 13.0 °F /  -10.6 °C 12.1 °F /  -11.1 °C 1004.9 in /  34025.9 hPa South 24.1 mph /  38.8 km/h 46.7 mph /  75.2 km/h 94 % 2.5 in /  63.5 mm 0.00 W/m2
23:24 13.2 °F /  -10.4 °C 12.3 °F /  -10.9 °C 1004.7 in /  34019.1 hPa South 25.7 mph /  41.4 km/h 46.7 mph /  75.2 km/h 94 % 2.3 in /  58.42 mm 0.00 W/m2
23:29 13.2 °F /  -10.4 °C 12.1 °F /  -11.1 °C 1004.7 in /  34019.1 hPa South 29.0 mph /  46.7 km/h 57.9 mph /  93.2 km/h 93 % 2.3 in /  58.42 mm 0.00 W/m2
23:34 13.4 °F /  -10.3 °C 12.1 °F /  -11.1 °C 1005.0 in /  34029.3 hPa South 32.2 mph /  51.8 km/h 54.7 mph /  88 km/h 92 % 2.3 in /  58.42 mm 0.00 W/m2
23:39 13.3 °F /  -10.4 °C 11.7 °F /  -11.3 °C 1004.8 in /  34022.5 hPa South 35.4 mph /  57 km/h 46.7 mph /  75.2 km/h 90 % 2.3 in /  58.42 mm 0.00 W/m2
23:44 13.2 °F /  -10.4 °C 11.4 °F /  -11.4 °C 1004.6 in /  34015.8 hPa South 33.8 mph /  54.4 km/h 48.3 mph /  77.7 km/h 89 % 2.3 in /  58.42 mm 0.00 W/m2
23:49 13.0 °F /  -10.6 °C 11.2 °F /  -11.6 °C 1004.5 in /  34012.4 hPa South 27.4 mph /  44.1 km/h 46.7 mph /  75.2 km/h 89 % 2.0 in /  50.8 mm 0.00 W/m2
23:54 12.9 °F /  -10.6 °C 10.8 °F /  -11.8 °C 1004.4 in /  34009 hPa South 25.7 mph /  41.4 km/h 45.1 mph /  72.6 km/h 87 % 1.8 in /  45.72 mm 0.00 W/m2
23:59 13.0 °F /  -10.6 °C 10.3 °F /  -12.1 °C 1004.3 in /  34005.6 hPa South 30.6 mph /  49.2 km/h 54.7 mph /  88 km/h 84 % 1.5 in /  38.1 mm 0.00 W/m2
Meteocoruña
Agradecimientos a Weather Underground - 3 mb